x

West Moresby (46208) Wave Buoy

1:00am - Tue 16th Sep 2014 All times are PDT. -7 hours from GMT.

  • Sig Wave height 7.9ft
  • Peak Period 12s
  • Wind
    9mph, 13mph gusts
  • Sea Temp 61°f
  • Air Temp 60°f
  • Sea Pressure 1012.4mb
  • West Moresby
  • West Moresby

More Historic Weather Station data

Upgrade to MSW Pro to gain access to the past 30 days of data for over 8000 Wavebouys and Weather Stations around the globe.

Join Pro

Comparision Forecast

View Surf forecast
   
Tue 09/16 1:00am 8ft 12s 9 13 mph 1012.4mb 61f 60f
12:00am 8ft 14s 11 13 mph 1012.5mb 61f 59f
Mon 09/15 11:00pm 7.5ft 13s 11 16 mph 1012.2mb 60f 59f
10:00pm 8ft 13s 13 18 mph 1012.2mb 60f 58f
9:00pm 7ft 14s 13 18 mph 1012.1mb 60f 59f
8:00pm 6ft 14s 11 16 mph 1012mb 61f 59f
7:00pm 6ft 12s 11 13 mph 1012.2mb 61f 59f
6:00pm 5.5ft 14s 11 13 mph 1012.5mb 61f 59f
5:00pm 5ft 15s 11 18 mph 1012.7mb 61f 59f
4:00pm 4.5ft 13s 11 13 mph 1013.1mb 61f 58f
3:00pm 4.5ft 10s 13 16 mph 1013.4mb 61f 58f
2:00pm 4.5ft 10s 11 16 mph 1013.7mb 61f 59f
1:00pm 4ft 10s 13 16 mph 1013.7mb 61f 58f
12:00pm 4ft 10s 11 13 mph 1013.7mb 61f 58f
11:00am 4.5ft 10s 11 16 mph 1013.6mb 61f 58f
10:00am 4.5ft 10s 11 13 mph 1013.6mb 61f 58f
9:00am 4ft 10s 13 16 mph 1013.4mb 61f 58f
8:00am 4.5ft 10s 13 16 mph 1013.4mb 61f 58f
7:00am 4.5ft 11s 11 16 mph 1013.6mb 60f 59f
6:00am 4ft 9s 13 16 mph 1013.6mb 60f 59f
5:00am 4.5ft 16s 13 18 mph 1013.7mb 60f 59f
4:00am 4ft 11s 13 18 mph 1013.9mb 60f 59f
3:00am 4ft 16s 13 20 mph 1014.1mb 60f 59f
2:00am 4ft 10s 13 22 mph 1014.5mb 60f 58f
1:00am 4ft 17s 13 18 mph 1014.6mb 60f 58f
12:00am 4.5ft 9s 16 18 mph 1014.6mb 60f 58f
Sun 09/14 11:00pm 4.5ft 8s 13 18 mph 1014.5mb 60f 59f
10:00pm 4.5ft 9s 13 18 mph 1014.5mb 60f 59f
9:00pm 4.5ft 10s 16 20 mph 1014.6mb 60f 59f
8:00pm 4ft 14s 16 18 mph 1014.3mb 60f 59f
7:00pm 4ft 10s 16 18 mph 1014.5mb 60f 59f
6:00pm 4ft 9s 16 18 mph 1014.7mb 60f 60f
5:00pm 4ft 10s 16 18 mph 1015mb 60f 60f
4:00pm 4ft 10s 16 20 mph 1015.3mb 60f 59f
3:00pm 4.5ft 10s 16 20 mph 1015.6mb 60f 59f
2:00pm 4.5ft 5s 16 18 mph 1015.9mb 60f 59f
1:00pm 4.5ft 5s 16 18 mph 1016mb 60f 59f
12:00pm 5ft 5s 18 22 mph 1016mb 60f 59f
11:00am 5ft 5s 20 25 mph 1016.2mb 60f 59f
10:00am 5ft 5s 20 25 mph 1016.2mb 60f 58f
9:00am 4.5ft 6s 20 25 mph 1016.1mb 60f 56f
8:00am 5ft 6s 18 22 mph 1015.9mb 60f 56f
7:00am 5ft 5s 20 25 mph 1015.7mb 60f 56f
6:00am 4.5ft 5s 20 25 mph 1015.7mb 60f 56f
5:00am 4.5ft 6s 20 25 mph 1015.8mb 60f 57f
4:00am 4.5ft 5s 18 22 mph 1016mb 61f 56f
3:00am 5ft 6s 20 22 mph 1016mb 61f 57f
2:00am 5ft 6s 18 22 mph 1016.3mb 61f 57f
1:00am 5ft 6s 20 25 mph 1016.5mb 61f 57f
12:00am 5.5ft 5s 20 25 mph 1016.6mb 61f 57f
Sat 09/13 11:00pm 5.5ft 6s 20 25 mph 1016.5mb 61f 59f
10:00pm 5ft 6s 20 25 mph 1016.5mb 61f 59f
9:00pm 5.5ft 6s 20 22 mph 1016.5mb 61f 59f
7:00pm 5ft 15s 22 27 mph 1016.7mb 61f 58f
6:00pm 5ft 6s 22 27 mph 1017mb 61f 60f
5:00pm 5ft 5s 20 22 mph 1017.4mb 61f 60f
4:00pm 4.5ft 6s 20 22 mph 1017.8mb 61f 59f
3:00pm 5ft 6s 20 25 mph 1018.1mb 61f 59f
2:00pm 5ft 5s 20 25 mph 1018.3mb 61f 59f
1:00pm 5ft 6s 20 25 mph 1018.6mb 61f 59f
12:00pm 6ft 5s 25 29 mph 1018.7mb 61f 58f
11:00am 5.5ft 5s 25 29 mph 1018.9mb 61f 58f
10:00am 5ft 5s 22 27 mph 1019.2mb 61f 59f
9:00am 5ft 6s 22 27 mph 1019.1mb 61f 59f
8:00am 5ft 6s 22 27 mph 1019.2mb 61f 58f
7:00am 5ft 6s 25 29 mph 1019.3mb 61f 59f
6:00am 5ft 6s 22 27 mph 1019.6mb 61f 59f
5:00am 5ft 6s 22 25 mph 1019.8mb 61f 59f
4:00am 5ft 6s 22 25 mph 1019.9mb 61f 59f
3:00am 5ft 6s 20 25 mph 1020.2mb 61f 59f
2:00am 5ft 6s 20 25 mph 1020.6mb 61f 59f
1:00am 5.5ft 5s 22 27 mph 1020.9mb 61f 59f
12:00am 5.5ft 6s 22 27 mph 1021.1mb 61f 59f
Fri 09/12 11:00pm 5ft 5s 22 27 mph 1021.2mb 61f 59f
10:00pm 5ft 5s 22 25 mph 1021.5mb 61f 59f
9:00pm 5ft 5s 22 27 mph 1021.7mb 61f 60f
8:00pm 4.5ft 5s 20 25 mph 1021.8mb 61f 59f
7:00pm 4.5ft 5s 20 25 mph 1022.1mb 61f 59f
6:00pm 4.5ft 10s 20 25 mph 1022.4mb 61f 60f
5:00pm 4.5ft 10s 22 25 mph 1022.7mb 61f 60f
4:00pm 4.5ft 5s 18 22 mph 1023.2mb 61f 59f
3:00pm 4.5ft 10s 20 22 mph 1023.7mb 61f 59f
2:00pm 4.5ft 4s 20 22 mph 1024.1mb 61f 59f
1:00pm 4.5ft 9s 20 25 mph 1024.5mb 61f 59f
12:00pm 4ft 9s 18 22 mph 1024.8mb 61f 59f
11:00am 4.5ft 10s 18 20 mph 1025.1mb 61f 59f
10:00am 4.5ft 10s 18 22 mph 1025.3mb 61f 59f